Avondale, Ohio
Current Conditions -  °F | °C
As of 4:53 PM on Wednesday 22 Oct 2014 (Local Time) from KLUK Reporting Station
Overcast Overcast  
Wind Chill: 12°   Ceiling: 3200
Heat Index: 12°   Visibility: 10mi
Dew Point:   Wind: 8mph
Humidity: 66%   Direction: 60°ENE
Pressure: 30.28"   Gusts: NA
Location:  39.1532°N, 84.4859°W
Report Text: KLUK 222053Z 06007KT 10SM OVC032 12/06 A3028 RMK AO2 SLP254 T01170056 56007
Loading
Personal Weather Stations






























Interactive Weather Map New forecast layout! Learn more

10-Day Weather Forecast

Advertisements
Track Severe Weather on mobile